Time;durP1;ratioP1;P1;durP2;ratioP2;P2;SDS_P1;SDS_P2;PMS_P1;PMS_P2;Temp;Humidity;BMP_temperature;BMP_pressure;BME280_temperature;BME280_humidity;BME280_pressure;Samples;Min_cycle;Max_cycle;Signal;HPM_P1;HPM_P2
2022/02/14 00:00:32;;;;;;;395.97;378.63;;;10.00;99.90;;;;;;4414434;32;20159;-61
2022/02/14 00:02:59;;;;;;;411.20;393.03;;;10.00;99.90;;;;;;4416384;32;20216;-61
2022/02/14 00:05:26;;;;;;;417.73;399.60;;;10.00;99.90;;;;;;4422771;32;20155;-61
2022/02/14 00:07:55;;;;;;;406.43;388.50;;;10.00;99.90;;;;;;4433585;32;20575;-60
2022/02/14 00:10:24;;;;;;;415.10;396.87;;;10.00;99.90;;;;;;4428385;32;20176;-61
2022/02/14 00:12:54;;;;;;;418.67;400.37;;;10.10;99.90;;;;;;4430285;32;20204;-61
2022/02/14 00:15:23;;;;;;;407.80;389.77;;;10.10;99.90;;;;;;4422838;32;20155;-61
2022/02/14 00:17:50;;;;;;;429.37;410.57;;;10.10;99.90;;;;;;4419915;32;20162;-61
2022/02/14 00:20:18;;;;;;;415.33;396.73;;;10.10;99.90;;;;;;4421017;32;20175;-61
2022/02/14 00:22:46;;;;;;;414.03;395.83;;;10.00;99.90;;;;;;4421598;32;20475;-60
2022/02/14 00:25:19;;;;;;;413.37;395.60;;;10.00;99.90;;;;;;4426685;32;20143;-61
2022/02/14 00:27:49;;;;;;;417.10;398.60;;;10.10;99.90;;;;;;4420684;32;20625;-63
2022/02/14 00:30:22;;;;;;;427.30;408.83;;;10.10;99.90;;;;;;4420633;32;20159;-61
2022/02/14 00:32:50;;;;;;;411.70;393.70;;;10.10;99.90;;;;;;4432018;32;20213;-60
2022/02/14 00:35:17;;;;;;;424.07;405.70;;;10.10;99.90;;;;;;4435743;32;20578;-60
2022/02/14 00:37:48;;;;;;;439.73;420.33;;;10.10;99.90;;;;;;4434578;32;20174;-62
2022/02/14 00:40:17;;;;;;;411.40;393.33;;;10.10;99.90;;;;;;4435691;32;20149;-61
2022/02/14 00:42:46;;;;;;;410.37;392.30;;;10.10;99.90;;;;;;4432556;32;20568;-63
2022/02/14 00:45:17;;;;;;;423.03;404.43;;;10.10;99.90;;;;;;4421102;32;20163;-63
2022/02/14 00:47:47;;;;;;;423.57;404.93;;;10.10;99.90;;;;;;4426389;32;20158;-63
2022/02/14 00:50:16;;;;;;;422.63;404.23;;;10.00;99.90;;;;;;4427590;32;20159;-61
2022/02/14 00:52:43;;;;;;;436.57;417.60;;;9.90;99.90;;;;;;4421379;32;20600;-61
2022/02/14 00:55:14;;;;;;;415.50;396.60;;;10.00;99.90;;;;;;4428069;32;20170;-61
2022/02/14 00:57:41;;;;;;;417.87;399.57;;;10.00;99.90;;;;;;4421907;32;20175;-62
2022/02/14 01:00:11;;;;;;;422.97;403.80;;;9.90;99.90;;;;;;4424241;32;20199;-62
2022/02/14 01:02:39;;;;;;;425.77;407.03;;;9.80;99.90;;;;;;4431826;32;20542;-59
2022/02/14 01:05:08;;;;;;;428.97;410.23;;;9.80;99.90;;;;;;4420006;32;20163;-62
2022/02/14 01:07:35;;;;;;;418.57;400.20;;;9.90;99.90;;;;;;4419605;32;20158;-62
2022/02/14 01:10:02;;;;;;;424.10;405.60;;;9.90;99.90;;;;;;4426106;32;20276;-61
2022/02/14 01:12:30;;;;;;;435.10;415.70;;;9.90;99.90;;;;;;4423080;32;20576;-61
2022/02/14 01:14:57;;;;;;;418.37;400.00;;;10.00;99.90;;;;;;4428248;32;20147;-61
2022/02/14 01:17:24;;;;;;;436.13;416.47;;;9.90;99.90;;;;;;4428907;32;20152;-63
2022/02/14 01:19:55;;;;;;;418.50;400.17;;;9.90;99.90;;;;;;4426866;32;20223;-62
2022/02/14 01:22:23;;;;;;;435.07;415.87;;;9.90;99.90;;;;;;4423342;32;20185;-63
2022/02/14 01:24:50;;;;;;;437.43;417.90;;;9.90;99.90;;;;;;4436004;32;20211;-60
2022/02/14 01:27:17;;;;;;;433.50;413.90;;;9.90;99.90;;;;;;4431122;32;20182;-63
2022/02/14 01:29:47;;;;;;;415.30;396.73;;;9.80;99.90;;;;;;4424535;32;20152;-62
2022/02/14 01:32:17;;;;;;;426.17;407.60;;;9.80;99.90;;;;;;4429317;32;20158;-63
2022/02/14 01:34:44;;;;;;;424.97;405.67;;;9.80;99.90;;;;;;4427635;32;20147;-61
2022/02/14 01:37:12;;;;;;;434.23;415.00;;;9.70;99.90;;;;;;4429285;32;20204;-60
2022/02/14 01:39:39;;;;;;;428.67;409.67;;;9.70;99.90;;;;;;4432007;32;20209;-60
2022/02/14 01:42:06;;;;;;;421.00;402.33;;;9.70;99.90;;;;;;4422427;32;20186;-59
2022/02/14 01:44:36;;;;;;;414.80;396.33;;;9.70;99.90;;;;;;4430721;32;20552;-59
2022/02/14 01:47:10;;;;;;;426.80;407.33;;;9.70;99.90;;;;;;4437473;32;20204;-60
2022/02/14 01:49:37;;;;;;;420.93;402.27;;;9.70;99.90;;;;;;4423836;32;20541;-60
2022/02/14 01:52:08;;;;;;;426.57;407.57;;;9.70;99.90;;;;;;4433484;32;20151;-60
2022/02/14 01:54:38;;;;;;;425.73;407.13;;;9.70;99.90;;;;;;4434313;32;20164;-60
2022/02/14 01:57:06;;;;;;;438.10;418.70;;;9.70;99.90;;;;;;4425787;32;20154;-60
2022/02/14 01:59:33;;;;;;;427.47;408.63;;;9.70;99.90;;;;;;4437500;32;20156;-59
2022/02/14 02:02:00;;;;;;;445.37;425.77;;;9.70;99.90;;;;;;4431800;32;20167;-60
2022/02/14 02:04:28;;;;;;;437.37;417.77;;;9.70;99.90;;;;;;4431418;32;20151;-61
2022/02/14 02:06:55;;;;;;;430.67;411.70;;;9.70;99.90;;;;;;4437245;32;20157;-60
2022/02/14 02:09:23;;;;;;;441.63;421.80;;;9.70;99.90;;;;;;4429412;32;20181;-61
2022/02/14 02:14:36;;;;;;;420.10;401.83;;;9.60;99.90;;;;;;4435036;32;20220;-63
2022/02/14 02:17:03;;;;;;;427.83;409.00;;;9.70;99.90;;;;;;4435435;32;20173;-63
2022/02/14 02:19:34;;;;;;;425.37;406.40;;;9.70;99.90;;;;;;4423569;32;20561;-62
2022/02/14 02:22:01;;;;;;;410.70;392.43;;;9.70;99.90;;;;;;4430619;32;20151;-62
2022/02/14 02:24:28;;;;;;;412.33;393.43;;;9.70;99.90;;;;;;4431859;32;20152;-60
2022/02/14 02:27:01;;;;;;;415.87;397.43;;;9.80;99.90;;;;;;4439302;32;20159;-60
2022/02/14 02:29:28;;;;;;;417.07;399.13;;;9.80;99.90;;;;;;4424065;32;20198;-62
2022/02/14 02:31:56;;;;;;;408.57;390.60;;;9.80;99.90;;;;;;4425190;32;20150;-60
2022/02/14 02:34:23;;;;;;;420.67;402.27;;;9.80;99.90;;;;;;4436317;32;20159;-60
2022/02/14 02:36:52;;;;;;;417.63;399.47;;;9.80;99.90;;;;;;4429360;32;20197;-60
2022/02/14 02:39:20;;;;;;;419.40;401.10;;;9.70;99.90;;;;;;4435184;32;20596;-60
2022/02/14 02:41:51;;;;;;;415.57;397.33;;;9.80;99.90;;;;;;4422163;32;20169;-61
2022/02/14 02:44:21;;;;;;;419.57;401.03;;;9.70;99.90;;;;;;4433208;32;20503;-61
2022/02/14 02:46:48;;;;;;;415.97;397.73;;;9.80;99.90;;;;;;4424642;32;20187;-61
2022/02/14 02:49:17;;;;;;;408.90;391.17;;;9.80;99.90;;;;;;4431245;32;20188;-60
2022/02/14 02:51:47;;;;;;;424.53;405.90;;;9.90;99.90;;;;;;4425843;32;20663;-60
2022/02/14 02:54:15;;;;;;;414.97;396.90;;;10.00;99.90;;;;;;4430307;32;20207;-60
2022/02/14 02:56:43;;;;;;;408.00;390.37;;;10.00;99.90;;;;;;4428738;32;20166;-60
2022/02/14 02:59:11;;;;;;;398.60;380.97;;;10.00;99.90;;;;;;4421530;32;20540;-60
2022/02/14 03:01:40;;;;;;;410.20;391.73;;;10.10;99.90;;;;;;4425079;32;20151;-60
2022/02/14 03:04:08;;;;;;;416.10;398.20;;;10.10;99.90;;;;;;4430628;32;20149;-59
2022/02/14 03:06:38;;;;;;;397.47;380.13;;;10.10;99.90;;;;;;4436351;32;20155;-59
2022/02/14 03:09:06;;;;;;;418.70;400.63;;;10.10;99.90;;;;;;4427916;32;20236;-59
2022/02/14 03:11:33;;;;;;;417.50;399.87;;;10.10;99.90;;;;;;4429092;32;20159;-60
2022/02/14 03:14:00;;;;;;;417.47;399.17;;;10.20;99.90;;;;;;4429022;32;20195;-60
2022/02/14 03:16:28;;;;;;;399.70;382.27;;;10.20;99.90;;;;;;4421479;32;20178;-60
2022/02/14 03:18:56;;;;;;;422.00;403.53;;;10.20;99.90;;;;;;4428395;32;20166;-60
2022/02/14 03:21:23;;;;;;;405.50;388.43;;;10.20;99.90;;;;;;4431377;32;20160;-62
2022/02/14 03:23:52;;;;;;;408.07;390.30;;;10.20;99.90;;;;;;4423675;32;20159;-62
2022/02/14 03:26:20;;;;;;;440.00;420.87;;;10.20;99.90;;;;;;4430472;32;20166;-60
2022/02/14 03:28:55;;;;;;;426.47;408.13;;;10.20;99.90;;;;;;4436098;32;20156;-61
2022/02/14 03:31:24;;;;;;;416.83;398.73;;;10.20;99.90;;;;;;4421155;32;20516;-61
2022/02/14 03:33:55;;;;;;;408.93;391.67;;;10.20;99.90;;;;;;4421470;32;20225;-60
2022/02/14 03:36:23;;;;;;;402.00;384.73;;;10.10;99.90;;;;;;4433815;32;20503;-59
2022/02/14 03:38:51;;;;;;;401.17;383.83;;;10.20;99.90;;;;;;4427659;32;20595;-60
2022/02/14 03:41:18;;;;;;;412.27;394.43;;;10.20;99.90;;;;;;4421615;32;20237;-60
2022/02/14 03:43:48;;;;;;;436.17;417.03;;;10.20;99.90;;;;;;4429880;32;20170;-61
2022/02/14 03:46:16;;;;;;;409.87;392.03;;;10.20;99.90;;;;;;4423406;32;20218;-61
2022/02/14 03:48:42;;;;;;;420.30;402.20;;;10.20;99.90;;;;;;4436834;32;20167;-61
2022/02/14 03:51:09;;;;;;;412.13;394.40;;;10.20;99.90;;;;;;4430037;32;20161;-61
2022/02/14 03:53:38;;;;;;;412.73;394.57;;;10.20;99.90;;;;;;4426584;32;20169;-62
2022/02/14 03:56:05;;;;;;;426.93;408.30;;;10.20;99.90;;;;;;4420951;32;20595;-62
2022/02/14 03:58:33;;;;;;;411.80;393.70;;;10.20;99.90;;;;;;4421715;32;20219;-62
2022/02/14 04:01:00;;;;;;;410.67;392.93;;;10.20;99.90;;;;;;4424326;32;20215;-61
2022/02/14 04:03:27;;;;;;;433.80;415.07;;;10.20;99.90;;;;;;4419263;32;20163;-60
2022/02/14 04:05:57;;;;;;;427.23;408.33;;;10.20;99.90;;;;;;4426806;32;20173;-62
2022/02/14 04:08:26;;;;;;;419.17;400.97;;;10.30;99.90;;;;;;4427714;32;20555;-61
2022/02/14 04:10:57;;;;;;;420.43;402.10;;;10.40;99.90;;;;;;4420660;32;20194;-62
2022/02/14 04:13:24;;;;;;;425.23;406.93;;;10.40;99.90;;;;;;4427010;32;20170;-60
2022/02/14 04:15:53;;;;;;;432.60;413.80;;;10.50;99.90;;;;;;4420769;32;20188;-60
2022/02/14 04:18:20;;;;;;;446.67;427.13;;;10.40;99.90;;;;;;4427568;32;20176;-60
2022/02/14 04:20:49;;;;;;;425.77;406.90;;;10.40;99.90;;;;;;4421103;32;20164;-60
2022/02/14 04:23:18;;;;;;;423.17;404.73;;;10.40;99.90;;;;;;4425280;32;20171;-60
2022/02/14 04:25:47;;;;;;;427.90;409.37;;;10.40;99.90;;;;;;4420830;32;20615;-60
2022/02/14 04:28:18;;;;;;;425.63;407.30;;;10.50;99.90;;;;;;4420017;32;20189;-61
2022/02/14 04:30:46;;;;;;;436.23;417.50;;;10.50;99.90;;;;;;4421176;32;20193;-61
2022/02/14 04:33:15;;;;;;;432.63;413.67;;;10.50;99.90;;;;;;4421152;32;20155;-61
2022/02/14 04:35:42;;;;;;;408.30;390.63;;;10.50;99.90;;;;;;4421519;32;20156;-61
2022/02/14 04:38:09;;;;;;;418.40;400.60;;;10.50;99.90;;;;;;4421050;32;20144;-60
2022/02/14 04:40:37;;;;;;;442.93;423.30;;;10.50;99.90;;;;;;4420656;32;20475;-61
2022/02/14 04:43:04;;;;;;;418.47;400.47;;;10.50;99.90;;;;;;4420093;32;20219;-60
2022/02/14 04:45:33;;;;;;;423.20;404.60;;;10.50;99.90;;;;;;4422031;32;20149;-61
2022/02/14 04:48:01;;;;;;;423.37;404.73;;;10.50;99.90;;;;;;4420591;32;20144;-60
2022/02/14 04:50:28;;;;;;;413.43;395.30;;;10.50;99.90;;;;;;4420595;32;20241;-60
2022/02/14 04:52:55;;;;;;;421.20;403.23;;;10.50;99.90;;;;;;4427036;32;20166;-61
2022/02/14 04:55:22;;;;;;;420.63;402.43;;;10.50;99.90;;;;;;4431029;32;20167;-60
2022/02/14 04:57:49;;;;;;;415.60;397.57;;;10.60;99.90;;;;;;4429470;32;20189;-60
2022/02/14 05:00:19;;;;;;;431.93;413.00;;;10.60;99.90;;;;;;4424417;32;20156;-60
2022/02/14 05:02:50;;;;;;;441.33;421.97;;;10.60;99.90;;;;;;4420634;32;20511;-60
2022/02/14 05:05:17;;;;;;;448.00;427.83;;;10.60;99.90;;;;;;4422872;32;20610;-59
2022/02/14 05:07:50;;;;;;;422.87;404.47;;;10.60;99.90;;;;;;4432428;32;20216;-62
2022/02/14 05:10:17;;;;;;;424.07;405.70;;;10.60;99.90;;;;;;4435341;32;20456;-60
2022/02/14 05:12:44;;;;;;;434.87;415.43;;;10.60;99.90;;;;;;4436362;32;20151;-61
2022/02/14 05:15:11;;;;;;;434.63;415.70;;;10.60;99.90;;;;;;4430249;32;20155;-60
2022/02/14 05:17:38;;;;;;;432.07;413.10;;;10.70;99.90;;;;;;4421174;32;20165;-60
2022/02/14 05:20:07;;;;;;;436.27;417.10;;;10.70;99.90;;;;;;4420415;32;20628;-60
2022/02/14 05:22:35;;;;;;;428.40;409.57;;;10.70;99.90;;;;;;4419641;32;20203;-61
2022/02/14 05:25:02;;;;;;;445.83;425.93;;;10.70;99.90;;;;;;4426888;32;20351;-61
2022/02/14 05:27:28;;;;;;;442.67;423.17;;;10.70;99.90;;;;;;4435111;32;20493;-61
2022/02/14 05:29:56;;;;;;;412.27;394.27;;;10.70;99.90;;;;;;4419221;32;20171;-59
2022/02/14 05:32:25;;;;;;;413.83;395.27;;;10.70;99.90;;;;;;4419322;32;20184;-62
2022/02/14 05:34:52;;;;;;;438.77;419.63;;;10.70;99.90;;;;;;4420183;32;20152;-62
2022/02/14 05:37:22;;;;;;;424.60;406.20;;;10.80;99.90;;;;;;4420063;32;20213;-62
2022/02/14 05:39:50;;;;;;;440.47;420.97;;;10.70;99.90;;;;;;4420314;32;20140;-62
2022/02/14 05:42:17;;;;;;;437.93;418.40;;;10.80;99.90;;;;;;4419998;32;20135;-62
2022/02/14 05:44:45;;;;;;;438.07;418.70;;;10.80;99.90;;;;;;4423015;32;20156;-62
2022/02/14 05:47:13;;;;;;;422.63;404.43;;;10.80;99.90;;;;;;4420990;32;20247;-61
2022/02/14 05:49:40;;;;;;;440.87;421.37;;;10.90;99.90;;;;;;4420301;32;20209;-61
2022/02/14 05:52:08;;;;;;;414.30;395.37;;;10.90;99.90;;;;;;4420157;32;20146;-60
2022/02/14 05:54:36;;;;;;;432.87;413.83;;;10.90;99.90;;;;;;4420019;32;20163;-60
2022/02/14 05:57:10;;;;;;;447.17;427.53;;;10.90;99.90;;;;;;4431105;32;20151;-61
2022/02/14 05:59:37;;;;;;;424.60;405.60;;;11.00;99.90;;;;;;4435514;32;20162;-62
2022/02/14 06:02:06;;;;;;;442.47;422.80;;;11.00;99.90;;;;;;4435112;32;20166;-62
2022/02/14 06:04:33;;;;;;;435.10;416.07;;;11.10;99.90;;;;;;4427178;32;20235;-61
2022/02/14 06:07:00;;;;;;;417.37;398.77;;;11.10;99.90;;;;;;4421067;32;20155;-61
2022/02/14 06:09:28;;;;;;;405.10;387.73;;;11.10;99.90;;;;;;4430955;32;20151;-62
2022/02/14 06:11:57;;;;;;;437.03;417.67;;;11.20;99.90;;;;;;4434947;32;20170;-62
2022/02/14 06:14:24;;;;;;;424.47;406.27;;;11.20;99.90;;;;;;4427094;32;20598;-62
2022/02/14 06:16:51;;;;;;;440.43;421.17;;;11.10;99.90;;;;;;4423230;32;20151;-63
2022/02/14 06:19:21;;;;;;;418.70;400.57;;;11.10;99.90;;;;;;4429210;32;20469;-63
2022/02/14 06:21:48;;;;;;;421.87;403.37;;;11.10;99.90;;;;;;4428647;32;20643;-60
2022/02/14 06:24:18;;;;;;;437.73;418.70;;;11.20;99.90;;;;;;4429145;32;20224;-62
2022/02/14 06:26:50;;;;;;;430.13;411.23;;;11.10;99.90;;;;;;4424621;32;20246;-60
2022/02/14 06:29:48;;;;;;;428.73;410.03;;;11.10;99.90;;;;;;4420596;32;20147;-63
2022/02/14 06:32:18;;;;;;;409.73;391.87;;;11.10;99.90;;;;;;4427672;32;20583;-61
2022/02/14 06:34:51;;;;;;;416.73;398.60;;;11.10;99.90;;;;;;4429394;32;20175;-60
2022/02/14 06:37:22;;;;;;;419.67;401.03;;;11.10;99.90;;;;;;4425652;32;20199;-61
2022/02/14 06:39:48;;;;;;;434.33;415.20;;;11.10;99.90;;;;;;4427596;32;20856;-60
2022/02/14 06:42:15;;;;;;;443.97;424.40;;;11.10;99.90;;;;;;4429803;32;20173;-61
2022/02/14 06:44:48;;;;;;;451.77;431.87;;;11.20;99.90;;;;;;4427519;32;20197;-61
2022/02/14 06:47:38;;;;;;;428.93;410.03;;;11.00;99.90;;;;;;4424147;32;20155;-63
2022/02/14 06:50:06;;;;;;;428.87;410.20;;;10.80;99.90;;;;;;4425606;32;20659;-66
2022/02/14 06:52:32;;;;;;;421.57;403.30;;;10.60;99.90;;;;;;4425255;32;20191;-61
2022/02/14 06:55:00;;;;;;;415.40;397.30;;;10.60;99.90;;;;;;4428583;32;20217;-60
2022/02/14 06:57:26;;;;;;;397.00;379.87;;;10.60;99.90;;;;;;4420334;32;20172;-61
2022/02/14 06:59:55;;;;;;;443.47;423.53;;;10.60;99.90;;;;;;4428573;32;20151;-61
2022/02/14 07:02:22;;;;;;;443.73;424.37;;;10.70;99.90;;;;;;4430425;32;20654;-62
2022/02/14 07:04:49;;;;;;;431.73;412.60;;;10.70;99.90;;;;;;4430402;32;20208;-60
2022/02/14 07:07:20;;;;;;;422.33;403.63;;;10.60;99.90;;;;;;4424593;32;20143;-65
2022/02/14 07:09:53;;;;;;;424.47;406.20;;;10.60;99.90;;;;;;4424347;32;20501;-61
2022/02/14 07:12:32;;;;;;;396.43;379.60;;;10.60;99.90;;;;;;4428021;32;20155;-61
2022/02/14 07:15:06;;;;;;;412.80;394.80;;;10.40;99.90;;;;;;4422811;32;20151;-61
2022/02/14 07:17:41;;;;;;;432.77;414.03;;;10.10;99.90;;;;;;4424675;32;20175;-63
2022/02/14 07:20:23;;;;;;;454.73;434.77;;;9.90;99.90;;;;;;4430799;32;20183;-62
2022/02/14 07:22:59;;;;;;;435.23;416.37;;;9.70;99.90;;;;;;4422894;32;20150;-61
2022/02/14 07:28:08;;;;;;;430.43;411.80;;;9.20;99.90;;;;;;4376821;32;20199;-61
2022/02/14 07:30:41;;;;;;;437.90;418.70;;;9.00;99.90;;;;;;4376695;32;20175;-61
2022/02/14 07:33:13;;;;;;;458.00;438.20;;;8.90;99.90;;;;;;4361894;32;20196;-66
2022/02/14 07:35:48;;;;;;;449.83;430.13;;;8.80;99.90;;;;;;4374251;32;20156;-61
2022/02/14 07:38:25;;;;;;;460.40;439.67;;;8.70;99.90;;;;;;4377634;32;20163;-61
2022/02/14 07:40:55;;;;;;;452.47;432.53;;;8.70;99.90;;;;;;4389839;32;20221;-60
2022/02/14 07:43:29;;;;;;;460.23;439.80;;;8.60;99.90;;;;;;4390490;32;20584;-59
2022/02/14 07:46:01;;;;;;;457.57;437.20;;;8.60;99.90;;;;;;4390124;32;20179;-60
2022/02/14 07:48:36;;;;;;;442.43;422.93;;;8.50;99.90;;;;;;4386208;32;20303;-61
2022/02/14 07:51:10;;;;;;;431.63;412.73;;;8.50;99.90;;;;;;4388856;32;20446;-62
2022/02/14 07:53:46;;;;;;;450.63;431.03;;;8.40;99.90;;;;;;4389027;32;20163;-64
2022/02/14 07:56:36;;;;;;;428.67;409.27;;;8.50;99.90;;;;;;4386429;32;20553;-62
2022/02/14 07:59:09;;;;;;;441.60;422.43;;;8.40;99.90;;;;;;4400637;32;20172;-62
2022/02/14 08:04:28;;;;;;;433.90;414.60;;;8.40;99.90;;;;;;4417650;32;20264;-64
2022/02/14 08:07:06;;;;;;;450.57;430.87;;;8.50;99.90;;;;;;4420060;32;20203;-61
2022/02/14 08:09:42;;;;;;;447.03;426.87;;;8.50;99.90;;;;;;4425005;32;20225;-65
2022/02/14 08:12:18;;;;;;;429.80;411.30;;;8.60;99.90;;;;;;4418956;32;20180;-64
2022/02/14 08:15:10;;;;;;;424.67;406.27;;;8.60;99.90;;;;;;4425539;32;20515;-62
2022/02/14 08:17:50;;;;;;;465.13;444.43;;;8.60;99.90;;;;;;4429216;32;20176;-63
2022/02/14 08:20:20;;;;;;;490.67;468.97;;;8.70;99.90;;;;;;4425952;32;20215;-62
2022/02/14 08:22:50;;;;;;;488.00;465.60;;;8.80;99.90;;;;;;4420362;32;20219;-64
2022/02/14 08:25:25;;;;;;;491.53;468.97;;;8.80;99.90;;;;;;4421946;32;20152;-63
2022/02/14 08:28:05;;;;;;;475.93;454.70;;;8.80;99.90;;;;;;4421643;32;20272;-63
2022/02/14 08:30:37;;;;;;;444.97;425.37;;;8.90;99.90;;;;;;4419939;32;20163;-62
2022/02/14 08:33:10;;;;;;;448.27;428.53;;;9.00;99.90;;;;;;4420971;32;20178;-60
2022/02/14 08:35:40;;;;;;;393.90;377.23;;;9.00;99.90;;;;;;4425975;32;20184;-62
2022/02/14 08:38:16;;;;;;;395.90;378.77;;;9.10;99.90;;;;;;4420172;32;20217;-59
2022/02/14 08:40:43;;;;;;;396.77;379.77;;;9.30;99.90;;;;;;4421931;32;20207;-63
2022/02/14 08:43:16;;;;;;;402.33;385.43;;;9.40;99.90;;;;;;4429848;32;20147;-62
2022/02/14 08:46:03;;;;;;;381.30;365.43;;;9.60;99.90;;;;;;4429986;32;20683;-62
2022/02/14 08:48:37;;;;;;;402.30;385.20;;;9.90;99.90;;;;;;4420300;32;20151;-64
2022/02/14 08:51:39;;;;;;;371.30;355.70;;;9.90;99.90;;;;;;4423362;32;20487;-63
2022/02/14 08:54:24;;;;;;;375.30;359.67;;;9.80;99.90;;;;;;4354667;32;20257;-60
2022/02/14 08:57:06;;;;;;;382.07;365.70;;;9.90;99.90;;;;;;4352078;33;20164;-60
2022/02/14 08:59:40;;;;;;;391.10;374.87;;;9.90;99.90;;;;;;4354439;32;20169;-62
2022/02/14 09:02:10;;;;;;;366.87;351.43;;;9.90;99.90;;;;;;4357305;33;20212;-60
2022/02/14 09:05:01;;;;;;;379.33;363.87;;;10.00;99.90;;;;;;4349709;33;20164;-64
2022/02/14 09:07:44;;;;;;;366.83;351.13;;;10.20;99.90;;;;;;4353533;33;20641;-64
2022/02/14 09:10:14;;;;;;;383.33;367.73;;;10.60;99.90;;;;;;4356746;32;20164;-64
2022/02/14 09:12:47;;;;;;;381.10;365.10;;;10.80;99.90;;;;;;4352210;33;20213;-63
2022/02/14 09:15:20;;;;;;;388.33;372.30;;;10.80;99.90;;;;;;4348673;33;20513;-63
2022/02/14 09:17:57;;;;;;;367.73;352.53;;;10.70;99.90;;;;;;4353639;33;20166;-61
2022/02/14 09:20:44;;;;;;;364.90;349.73;;;10.60;99.90;;;;;;4342109;32;20204;-62
2022/02/14 09:23:19;;;;;;;352.40;337.73;;;10.60;99.90;;;;;;4353218;33;20231;-62
2022/02/14 09:25:48;;;;;;;374.00;358.50;;;10.60;99.90;;;;;;4356032;33;20217;-64
2022/02/14 09:28:18;;;;;;;380.10;364.13;;;10.50;99.90;;;;;;4351464;33;20557;-62
2022/02/14 09:30:57;;;;;;;368.27;352.90;;;10.40;99.90;;;;;;4387003;32;20163;-63
2022/02/14 09:33:36;;;;;;;359.07;344.17;;;10.40;99.90;;;;;;4419161;32;20156;-61
2022/02/14 09:36:17;;;;;;;364.47;349.30;;;10.40;99.90;;;;;;4424152;32;20211;-61
2022/02/14 09:38:50;;;;;;;374.60;359.27;;;10.40;99.90;;;;;;4420499;32;20151;-62
2022/02/14 09:41:21;;;;;;;364.53;349.23;;;10.40;99.90;;;;;;4425146;32;20178;-61
2022/02/14 09:44:09;;;;;;;355.87;341.00;;;10.30;99.90;;;;;;4425723;32;20173;-61
2022/02/14 09:46:47;;;;;;;356.40;341.83;;;10.30;99.90;;;;;;4431349;32;20514;-62
2022/02/14 09:49:36;;;;;;;374.37;358.87;;;10.00;99.90;;;;;;4429490;32;20168;-63
2022/02/14 09:52:18;;;;;;;367.80;352.37;;;9.70;99.90;;;;;;4423734;32;20187;-64
2022/02/14 09:54:48;;;;;;;375.67;359.80;;;9.40;99.90;;;;;;4421837;32;20178;-60
2022/02/14 09:58:08;;;;;;;389.70;372.70;;;9.40;99.90;;;;;;4427518;32;20161;-65
2022/02/14 10:00:40;;;;;;;384.03;367.93;;;9.50;99.90;;;;;;4352160;32;20168;-65
2022/02/14 10:03:18;;;;;;;377.73;361.07;;;9.50;99.90;;;;;;4352061;32;20168;-61
2022/02/14 10:08:37;;;;;;;378.10;362.33;;;9.60;99.90;;;;;;4354142;32;20241;-61
2022/02/14 10:11:23;;;;;;;367.00;351.23;;;9.80;99.90;;;;;;4338856;33;20181;-59
2022/02/14 10:13:58;;;;;;;376.70;360.73;;;10.00;99.90;;;;;;4347958;33;20165;-63
2022/02/14 10:16:34;;;;;;;395.13;378.30;;;10.00;99.90;;;;;;4345944;33;20187;-63
2022/02/14 10:19:14;;;;;;;389.37;372.93;;;9.90;99.90;;;;;;4353417;33;20157;-60
2022/02/14 10:21:49;;;;;;;377.30;361.13;;;9.70;99.90;;;;;;4345897;33;20145;-63
2022/02/14 10:24:20;;;;;;;405.27;388.07;;;9.70;99.90;;;;;;4350729;33;20238;-61
2022/02/14 10:26:52;;;;;;;380.47;364.20;;;10.00;99.90;;;;;;4354603;32;20189;-62
2022/02/14 10:29:41;;;;;;;403.33;385.77;;;10.20;99.90;;;;;;4354164;32;20293;-61
2022/02/14 10:32:17;;;;;;;368.20;352.43;;;10.40;99.90;;;;;;4298984;33;20213;-62
2022/02/14 10:34:49;;;;;;;386.47;370.20;;;10.50;99.90;;;;;;4298950;33;20164;-63
2022/02/14 10:37:55;;;;;;;371.43;355.33;;;10.70;99.90;;;;;;4321493;33;20229;-64
2022/02/14 10:40:45;;;;;;;358.53;343.50;;;11.10;99.90;;;;;;4331484;33;20221;-62
2022/02/14 10:43:30;;;;;;;337.37;323.50;;;11.50;99.90;;;;;;4334780;33;20185;-63
2022/02/14 10:45:59;;;;;;;334.50;320.60;;;11.60;99.90;;;;;;4340358;33;20165;-60
2022/02/14 10:48:41;;;;;;;337.90;323.33;;;11.50;99.90;;;;;;4340999;33;20188;-62
2022/02/14 10:51:09;;;;;;;332.80;318.57;;;11.50;99.90;;;;;;4340219;33;20183;-61
2022/02/14 10:53:47;;;;;;;341.13;326.97;;;11.40;99.90;;;;;;4339009;33;20165;-63
2022/02/14 10:56:22;;;;;;;318.73;305.27;;;11.40;99.90;;;;;;4330729;33;21915;-60
2022/02/14 10:59:05;;;;;;;344.73;330.43;;;11.30;99.90;;;;;;4336643;33;20649;-62
2022/02/14 11:01:40;;;;;;;327.73;313.87;;;11.30;99.90;;;;;;4333970;33;20185;-60
2022/02/14 11:04:17;;;;;;;324.63;311.23;;;11.20;99.90;;;;;;4350914;32;20155;-61
2022/02/14 11:06:53;;;;;;;325.00;311.53;;;11.30;99.90;;;;;;4365345;32;20186;-63
2022/02/14 11:09:23;;;;;;;311.80;298.73;;;11.30;99.90;;;;;;4401037;32;20231;-61
2022/02/14 11:12:00;;;;;;;322.93;309.83;;;11.30;99.90;;;;;;4427097;32;20147;-60
2022/02/14 11:14:31;;;;;;;325.70;312.53;;;11.30;99.90;;;;;;4412072;32;20158;-63
2022/02/14 11:17:04;;;;;;;315.43;302.03;;;11.20;99.90;;;;;;4429913;32;20241;-63
2022/02/14 11:19:48;;;;;;;336.77;322.70;;;11.20;99.90;;;;;;4429352;32;20215;-60
2022/02/14 11:22:18;;;;;;;324.37;311.07;;;10.80;99.90;;;;;;4421208;32;20210;-62
2022/02/14 11:24:57;;;;;;;327.47;313.57;;;10.60;99.90;;;;;;4421178;32;20161;-62
2022/02/14 11:30:29;;;;;;;333.47;319.57;;;10.50;99.90;;;;;;4420886;32;20198;-61
2022/02/14 11:33:20;;;;;;;330.10;316.30;;;10.50;99.90;;;;;;4420296;32;20157;-60
2022/02/14 11:36:07;;;;;;;331.00;317.20;;;10.60;99.90;;;;;;4421312;32;20170;-64
2022/02/14 11:38:46;;;;;;;337.70;323.60;;;10.50;99.90;;;;;;4421491;32;20576;-62
2022/02/14 11:41:39;;;;;;;383.33;367.53;;;10.40;99.90;;;;;;4422062;32;20190;-61
2022/02/14 11:44:21;;;;;;;360.93;345.50;;;10.30;99.90;;;;;;4344085;33;20161;-61
2022/02/14 11:47:14;;;;;;;361.53;346.17;;;10.50;99.90;;;;;;4344154;33;20169;-62
2022/02/14 11:49:50;;;;;;;327.60;313.87;;;10.90;99.90;;;;;;4343582;33;20514;-63
2022/02/14 11:52:39;;;;;;;348.60;334.20;;;11.10;99.90;;;;;;4344033;33;20176;-62
2022/02/14 11:55:34;;;;;;;303.70;291.13;;;11.40;99.90;;;;;;4344342;33;20612;-62
2022/02/14 11:58:11;;;;;;;313.23;300.13;;;11.40;99.90;;;;;;4345137;33;20199;-65
2022/02/14 12:01:06;;;;;;;315.27;302.60;;;11.30;99.90;;;;;;4359943;32;20157;-62
2022/02/14 12:03:35;;;;;;;335.93;321.50;;;11.30;99.90;;;;;;4358760;33;20165;-61
2022/02/14 12:06:05;;;;;;;323.17;309.53;;;11.30;99.90;;;;;;4346557;32;20671;-62
2022/02/14 12:08:59;;;;;;;333.97;320.30;;;11.30;99.90;;;;;;4345649;33;20168;-61
2022/02/14 12:12:11;;;;;;;318.17;304.60;;;11.40;99.90;;;;;;4358356;33;20195;-62
2022/02/14 12:14:38;;;;;;;316.03;303.17;;;11.50;99.90;;;;;;4314791;33;20255;-63
2022/02/14 12:20:57;;;;;;;303.70;290.87;;;11.40;99.90;;;;;;4331733;32;20183;-59
2022/02/14 12:23:39;;;;;;;306.13;293.60;;;11.30;99.90;;;;;;4376857;32;20204;-62
2022/02/14 12:26:11;;;;;;;315.77;302.77;;;11.10;99.90;;;;;;4380039;32;20232;-61
2022/02/14 12:28:41;;;;;;;338.33;324.50;;;10.90;99.90;;;;;;4378878;32;20179;-60
2022/02/14 12:31:17;;;;;;;333.20;319.10;;;10.80;99.90;;;;;;4379209;32;20183;-60
2022/02/14 12:33:56;;;;;;;336.10;322.13;;;10.80;99.90;;;;;;4379208;32;20180;-60
2022/02/14 12:36:26;;;;;;;340.33;326.10;;;10.80;99.90;;;;;;4368367;32;20212;-62
2022/02/14 12:39:03;;;;;;;320.33;307.03;;;10.70;99.90;;;;;;4380515;32;20190;-63
2022/02/14 12:41:41;;;;;;;322.10;308.87;;;10.60;99.90;;;;;;4378912;32;20168;-63
2022/02/14 12:44:11;;;;;;;319.07;305.93;;;10.40;99.90;;;;;;4380251;32;20164;-61
2022/02/14 12:46:40;;;;;;;337.97;323.87;;;10.30;99.90;;;;;;4379602;32;20165;-60
2022/02/14 12:49:16;;;;;;;341.20;327.17;;;10.40;99.90;;;;;;4378515;32;20180;-63
2022/02/14 12:52:32;;;;;;;345.03;330.53;;;10.60;99.90;;;;;;4413079;32;20139;-63
2022/02/14 12:55:02;;;;;;;304.00;291.33;;;10.80;99.90;;;;;;4422816;32;20144;-62